METAR Data
IDs: Format: Raw Decoded Include TAF

Data at: 1456 UTC 25 Jan 2020

METAR for:KOOA (Oskaloosa Muni, IA, US)
Text:KOOA 251435Z AUTO 29012KT 7SM OVC011 00/M01 A3001 RMK AO2 T00001015
Temperature: 0.0°C ( 32°F)
Dewpoint: -1.5°C ( 29°F) [RH = 90%]
Pressure (altimeter):30.01 inches Hg (1016.3 mb)
Winds:from the WNW (290 degrees) at 14 MPH (12 knots; 6.2 m/s)
Visibility: 7 sm ( 11 km)
Ceiling:1100 feet AGL
Clouds: overcast cloud deck at 1100 feet AGL
QC Flag:automated observation with no human augmentation